This is the latest recevied weather packets stored in our database for station/object OE-4057. If no packets are shown the sender has not sent any weather packets the latest 10 day(s).
| Time | Temp. | Humidity | Pressure | Rain* | Wind** | Luminosity | Snow |
|---|---|---|---|---|---|---|---|
| 1787989271 | 14.44° C | 91% | 1021.4 hPa | - | - | - | - |
| 1787987471 | 14.44° C | 89% | 1020.3 hPa | - | - | - | - |
| 1787985671 | 13.89° C | 91% | 1020.4 hPa | - | - | - | - |
| 1787983871 | 13.89° C | 92% | 1020.4 hPa | - | - | - | - |
| 1787982071 | 13.89° C | 93% | 1020.5 hPa | - | - | - | - |
| 1787980271 | 13.33° C | 93% | 1020.5 hPa | - | - | - | - |
| 1787978471 | 13.33° C | 93% | 1020.5 hPa | - | - | - | - |
| 1787976671 | 13.89° C | 92% | 1020.5 hPa | - | - | - | - |
| 1787973071 | 13.89° C | 91% | 1021.5 hPa | - | - | - | - |
| 1787971271 | 13.89° C | 90% | 1021.5 hPa | - | - | - | - |
| 1787969471 | 13.89° C | 90% | 1021.5 hPa | - | - | - | - |
| 1787967671 | 13.89° C | 89% | 1021.5 hPa | - | - | - | - |
| 1787965871 | 13.89° C | 89% | 1021.5 hPa | - | - | - | - |
| 1787964071 | 14.44° C | 83% | 1021.3 hPa | - | - | - | - |
| 1787962271 | 16.11° C | 73% | 1018.8 hPa | - | - | - | - |
| 1787956871 | 20.56° C | 71% | 1015.5 hPa | - | - | - | - |
| 1787955072 | 20.56° C | 71% | 1015.5 hPa | - | - | - | - |
| 1787951471 | 20.56° C | 71% | 1014.5 hPa | - | - | - | - |
| 1787949672 | 20.56° C | 71% | 1013.4 hPa | - | - | - | - |
| 1787947871 | 20.56° C | 70% | 1013.4 hPa | - | - | - | - |
| 1787946072 | 21.11° C | 69% | 1013.3 hPa | - | - | - | - |
| 1787944271 | 21.11° C | 67% | 1013.2 hPa | - | - | - | - |
| 1787942471 | 21.67° C | 66% | 1013.1 hPa | - | - | - | - |
| 1787940671 | 22.22° C | 64% | 1012.9 hPa | - | - | - | - |
| 1787938871 | 22.78° C | 64% | 1012.8 hPa | - | - | - | - |
* Rain since midnight (hover to see other rain measurements)
** Current wind speed in m/s (hover to see current wind gust speed)